createdAt,value
2018-09-27T00:03:18.140Z,46.1
2018-09-27T00:08:20.609Z,46.4
2018-09-27T00:13:23.003Z,46.1
2018-09-27T00:18:25.464Z,45.7
2018-09-27T00:23:27.957Z,45.1
2018-09-27T00:28:30.948Z,44.2
2018-09-27T00:33:32.748Z,44.7
2018-09-27T00:38:35.466Z,45.4
2018-09-27T00:43:37.992Z,45.9
2018-09-27T00:48:40.195Z,46.2
2018-09-27T00:53:42.526Z,46.4
2018-09-27T00:58:44.939Z,46.3
2018-09-27T01:03:47.396Z,46.3
2018-09-27T01:08:49.964Z,46.5
2018-09-27T01:13:52.671Z,46.9
2018-09-27T01:18:54.878Z,47.4
2018-09-27T01:23:57.144Z,47.3
2018-09-27T01:28:59.664Z,47.2
2018-09-27T01:34:02.129Z,47.1
2018-09-27T01:39:04.484Z,47.2
2018-09-27T01:44:07.641Z,47.4
2018-09-27T01:49:09.446Z,47.6
2018-09-27T01:54:11.783Z,47.6
2018-09-27T01:59:14.347Z,47.7
2018-09-27T02:04:16.748Z,47.5
2018-09-27T02:09:19.102Z,46.9
2018-09-27T02:14:24.467Z,47.2
2018-09-27T02:19:24.292Z,47.6
2018-09-27T02:24:26.841Z,48.1
2018-09-27T02:29:28.873Z,48.4
2018-09-27T02:34:31.321Z,48.8
2018-09-27T02:39:33.767Z,47.2
2018-09-27T02:44:36.395Z,46
2018-09-27T02:49:38.630Z,43.9
2018-09-27T02:54:41.076Z,43.4
2018-09-27T02:59:43.507Z,42.2
2018-09-27T03:04:45.996Z,41.5
2018-09-27T03:09:48.479Z,40.3
2018-09-27T03:14:50.980Z,39.6
2018-09-27T03:19:53.271Z,39.5
2018-09-27T03:24:55.727Z,39.4
2018-09-27T03:29:58.153Z,39
2018-09-27T03:35:00.774Z,38.4
2018-09-27T03:40:03.082Z,38.7
2018-09-27T03:45:05.604Z,38.8
2018-09-27T03:50:07.933Z,38.5
2018-09-27T03:55:10.431Z,39
2018-09-27T04:00:13.243Z,39.1
2018-09-27T04:05:15.294Z,39.1
2018-09-27T04:10:18.482Z,40
2018-09-27T04:15:20.184Z,39.3
2018-09-27T04:20:22.590Z,37.7
2018-09-27T04:25:25.159Z,37
2018-09-27T04:30:27.491Z,37.2
2018-09-27T04:35:35.046Z,37.7
2018-09-27T04:40:32.528Z,37.6
2018-09-27T04:45:34.847Z,37.2
2018-09-27T04:50:37.250Z,37.2
2018-09-27T04:55:39.678Z,37.2
2018-09-27T05:00:42.091Z,37.3
2018-09-27T05:05:44.539Z,37.3
2018-09-27T05:10:47.019Z,37.4
2018-09-27T05:15:49.516Z,37.3
2018-09-27T05:20:51.893Z,37.3
2018-09-27T05:25:54.303Z,37.8
2018-09-27T05:30:56.790Z,38.1
2018-09-27T05:35:59.193Z,38.5
2018-09-27T05:41:01.635Z,38.8
2018-09-27T05:46:04.082Z,39.4
2018-09-27T05:51:06.530Z,40
2018-09-27T05:56:08.947Z,40.4
2018-09-27T06:01:11.776Z,40.8
2018-09-27T06:06:13.954Z,41
2018-09-27T06:11:16.541Z,41
2018-09-27T06:16:18.876Z,41.1
2018-09-27T06:21:21.492Z,41.2
2018-09-27T06:26:23.602Z,41.5
2018-09-27T06:31:26.170Z,41.8
2018-09-27T06:36:28.510Z,43
2018-09-27T06:41:30.983Z,43.6
2018-09-27T06:46:33.331Z,44.5
2018-09-27T06:51:35.764Z,44.8
2018-09-27T06:56:39.101Z,45.8
2018-09-27T07:01:40.699Z,47.1
2018-09-27T07:06:43.464Z,47.6
2018-09-27T07:11:45.650Z,48.5
2018-09-27T07:16:48.172Z,49.9
2018-09-27T07:21:50.502Z,50.1
2018-09-27T07:26:52.963Z,50.2
2018-09-27T07:31:55.294Z,50.4
2018-09-27T07:36:57.741Z,50.6
2018-09-27T07:42:00.190Z,50.8
2018-09-27T07:47:02.647Z,50.9
2018-09-27T07:52:05.120Z,50.4
2018-09-27T07:57:07.512Z,50.4
2018-09-27T08:02:10.134Z,50.1
2018-09-27T08:07:12.446Z,49.7
2018-09-27T08:12:14.802Z,49.6
2018-09-27T08:17:17.622Z,49.5
2018-09-27T08:22:19.845Z,49.2
2018-09-27T08:27:22.194Z,48.9
2018-09-27T08:32:24.668Z,48.7
2018-09-27T08:37:27.215Z,48.8
2018-09-27T08:47:31.960Z,50.2
2018-09-27T08:52:34.359Z,50.9
2018-09-27T08:57:36.865Z,51.6
2018-09-27T09:02:39.276Z,52.5
2018-09-27T09:07:41.820Z,52.7
2018-09-27T09:12:44.094Z,53
2018-09-27T09:17:46.619Z,53.4
2018-09-27T09:22:49.071Z,54.5
2018-09-27T09:27:51.658Z,55.1
2018-09-27T09:32:53.896Z,55.4
2018-09-27T09:37:56.358Z,55.3
2018-09-27T09:42:58.762Z,55.7
2018-09-27T09:48:01.237Z,56
2018-09-27T09:53:03.705Z,56.1
2018-09-27T09:58:06.262Z,56.6
2018-09-27T10:03:08.577Z,57
2018-09-27T10:08:10.955Z,57.3
2018-09-27T10:13:13.435Z,57.5
2018-09-27T10:18:16.241Z,58
2018-09-27T10:23:18.314Z,58.2
2018-09-27T10:28:20.828Z,57.6
2018-09-27T10:33:23.161Z,57.9
2018-09-27T10:38:25.719Z,58.6
2018-09-27T10:43:28.057Z,59.1
2018-09-27T10:48:30.567Z,59.7
2018-09-27T10:53:32.917Z,59.6
2018-09-27T10:58:35.351Z,58.9
2018-09-27T11:03:37.859Z,58.5
2018-09-27T11:08:40.329Z,57.9
2018-09-27T11:13:42.739Z,57.2
2018-09-27T11:18:45.205Z,55.5
2018-09-27T11:23:47.605Z,55
2018-09-27T11:28:50.148Z,53.3
2018-09-27T11:33:52.525Z,51.9
2018-09-27T11:38:55.296Z,51
2018-09-27T11:43:57.537Z,50
2018-09-27T11:48:59.835Z,48.2
2018-09-27T11:54:02.281Z,46.4
2018-09-27T11:59:04.777Z,46.3
2018-09-27T12:04:07.197Z,45.5
2018-09-27T12:09:10.009Z,42.8
2018-09-27T12:14:13.674Z,42.8
2018-09-27T12:19:14.766Z,41.5
2018-09-27T12:24:16.919Z,41.1
2018-09-27T12:29:19.394Z,39.9
2018-09-27T12:34:21.783Z,40.4
2018-09-27T12:39:24.257Z,38
2018-09-27T12:49:29.112Z,37.8
2018-09-27T12:54:31.524Z,35.9
2018-09-27T12:59:33.935Z,35.1
2018-09-27T13:04:36.569Z,36.2
2018-09-27T13:09:39.139Z,35.3
2018-09-27T13:14:47.398Z,33.4
2018-09-27T13:19:43.763Z,32.7
2018-09-27T13:24:46.167Z,32.6
2018-09-27T13:29:48.621Z,31.4
2018-09-27T13:34:51.218Z,30.9
2018-09-27T13:39:53.618Z,31.3
2018-09-27T13:44:56.036Z,30.6
2018-09-27T13:49:58.402Z,30.4
2018-09-27T13:55:00.863Z,31.5
2018-09-27T14:00:03.288Z,31.3
2018-09-27T14:05:05.747Z,29.4
2018-09-27T14:10:08.158Z,29
2018-09-27T14:15:10.677Z,28.4
2018-09-27T14:20:13.097Z,28.7
2018-09-27T14:25:15.475Z,27.4
2018-09-27T14:30:17.958Z,27.3
2018-09-27T14:35:20.394Z,27.9
2018-09-27T14:40:22.822Z,27.3
2018-09-27T14:45:25.298Z,26.8
2018-09-27T14:50:27.712Z,26.8
2018-09-27T14:55:30.135Z,25.9
2018-09-27T15:00:32.667Z,25.5
2018-09-27T15:05:35.067Z,24.9
2018-09-27T15:10:37.551Z,25.1
2018-09-27T15:15:39.915Z,25.4
2018-09-27T15:20:42.675Z,25.2
2018-09-27T15:25:44.848Z,25.6
2018-09-27T15:30:47.259Z,25.4
2018-09-27T15:35:49.723Z,25.8
2018-09-27T15:40:52.415Z,26.1
2018-09-27T15:45:54.587Z,26.6
2018-09-27T15:50:57.074Z,27.5
2018-09-27T15:55:59.525Z,29.3
2018-09-27T16:01:02.070Z,31.9
2018-09-27T16:06:04.356Z,34.2
2018-09-27T16:11:07.335Z,36.3
2018-09-27T16:16:09.255Z,38.1
2018-09-27T16:21:11.700Z,39.6
2018-09-27T16:26:14.112Z,40.6
2018-09-27T16:31:17.130Z,41.5
2018-09-27T16:36:19.000Z,42.3
2018-09-27T16:41:21.463Z,43.4
2018-09-27T16:46:23.922Z,44.1
2018-09-27T16:51:26.322Z,44.9
2018-09-27T16:56:28.795Z,45.5
2018-09-27T17:01:31.198Z,46
2018-09-27T17:06:33.665Z,46.5
2018-09-27T17:11:36.157Z,47
2018-09-27T17:16:38.792Z,47.1
2018-09-27T17:21:41.089Z,47.5
2018-09-27T17:26:43.456Z,47.8
2018-09-27T17:31:45.957Z,48.3
2018-09-27T17:36:48.383Z,49.1
2018-09-27T17:41:50.767Z,49.4
2018-09-27T17:46:53.253Z,48.3
2018-09-27T17:51:55.649Z,47.9
2018-09-27T17:56:58.231Z,47.1
2018-09-27T18:02:00.483Z,47.1
2018-09-27T18:07:02.913Z,47.2
2018-09-27T18:12:05.389Z,46.9
2018-09-27T18:17:07.838Z,46.6
2018-09-27T18:22:10.306Z,46.7
2018-09-27T18:27:12.727Z,46.7
2018-09-27T18:32:15.259Z,46.3
2018-09-27T18:37:17.594Z,46.5
2018-09-27T18:42:25.329Z,46.5
2018-09-27T18:47:22.441Z,46.5
2018-09-27T18:52:24.914Z,46.4
2018-09-27T18:57:27.336Z,46.2
2018-09-27T19:02:29.795Z,45.7
2018-09-27T19:07:32.214Z,45.4
2018-09-27T19:12:34.907Z,45.2
2018-09-27T19:17:37.249Z,44.6
2018-09-27T19:22:39.590Z,45.1
2018-09-27T19:27:42.061Z,45.6
2018-09-27T19:32:44.504Z,45.8
2018-09-27T19:37:46.867Z,46
2018-09-27T19:42:49.416Z,45.5
2018-09-27T19:47:51.741Z,44.7
2018-09-27T19:52:54.210Z,44.7
2018-09-27T19:57:56.685Z,44.4
2018-09-27T20:02:59.202Z,44.5
2018-09-27T20:08:01.600Z,44.5
2018-09-27T20:13:04.102Z,44.3
2018-09-27T20:18:06.429Z,43.6
2018-09-27T20:23:08.908Z,43.1
2018-09-27T20:28:11.454Z,42.7
2018-09-27T20:33:13.706Z,42.6
2018-09-27T20:38:16.228Z,42.4
2018-09-27T20:43:18.618Z,42.3
2018-09-27T20:48:21.193Z,42.8
2018-09-27T20:53:23.500Z,43.1
2018-09-27T20:58:26.224Z,43.7
2018-09-27T21:03:28.417Z,44.1
2018-09-27T21:13:33.242Z,44.8
2018-09-27T21:18:35.721Z,45.1
2018-09-27T21:23:38.109Z,45.2
2018-09-27T21:28:40.551Z,45.2
2018-09-27T21:33:43.000Z,43.2
2018-09-27T21:38:45.518Z,42.5
2018-09-27T21:43:47.862Z,42.7
2018-09-27T21:48:50.401Z,43.4
2018-09-27T21:53:52.832Z,43.9
2018-09-27T21:58:55.184Z,44.1
2018-09-27T22:03:57.667Z,44.6
2018-09-27T22:09:00.214Z,44.9
2018-09-27T22:14:02.863Z,42.9
2018-09-27T22:19:04.992Z,41.7
2018-09-27T22:24:07.433Z,41.7
2018-09-27T22:29:09.913Z,42.6
2018-09-27T22:34:12.341Z,43.2
2018-09-27T22:39:14.749Z,43.7
2018-09-27T22:44:17.763Z,43.9
2018-09-27T22:49:19.615Z,44.3
2018-09-27T22:54:22.210Z,44.2
2018-09-27T22:59:24.553Z,43.8
2018-09-27T23:04:27.178Z,43.2
2018-09-27T23:09:29.341Z,42.9
2018-09-27T23:14:32.015Z,42.8
2018-09-27T23:19:34.372Z,43
2018-09-27T23:24:36.739Z,43.4
2018-09-27T23:29:39.314Z,43.6
2018-09-27T23:34:41.599Z,44
2018-09-27T23:39:44.075Z,44.3
2018-09-27T23:44:46.478Z,44.8
2018-09-27T23:49:48.870Z,45
2018-09-27T23:54:51.353Z,45.2
2018-09-27T23:59:53.866Z,45.3
